createdAt,value
2023-05-25T00:01:48.823Z,62.00
2023-05-25T00:04:17.353Z,61.70
2023-05-25T00:06:45.471Z,61.30
2023-05-25T00:09:12.854Z,61.40
2023-05-25T00:11:40.209Z,61.90
2023-05-25T00:14:08.402Z,62.00
2023-05-25T00:16:37.434Z,62.10
2023-05-25T00:19:06.113Z,61.90
2023-05-25T00:21:38.268Z,62.00
2023-05-25T00:24:06.064Z,62.00
2023-05-25T00:26:33.556Z,61.90
2023-05-25T00:29:01.060Z,62.10
2023-05-25T00:31:28.807Z,62.10
2023-05-25T00:33:57.465Z,62.50
2023-05-25T00:36:24.884Z,61.90
2023-05-25T00:38:52.165Z,62.20
2023-05-25T00:41:19.440Z,62.10
2023-05-25T00:43:47.334Z,62.10
2023-05-25T00:46:15.707Z,63.10
2023-05-25T00:48:43.780Z,63.00
2023-05-25T00:51:13.819Z,62.10
2023-05-25T00:53:42.501Z,62.30
2023-05-25T00:56:14.732Z,62.50
2023-05-25T00:58:43.136Z,62.40
2023-05-25T01:01:11.851Z,62.60
2023-05-25T01:03:43.057Z,62.10
2023-05-25T02:09:39.017Z,62.30
2023-05-25T02:12:06.624Z,62.90
2023-05-25T02:14:33.891Z,63.00
2023-05-25T02:17:02.166Z,62.80
2023-05-25T02:19:30.092Z,63.10
2023-05-25T02:21:57.403Z,62.80
2023-05-25T02:24:24.940Z,62.80
2023-05-25T02:26:55.060Z,63.00
2023-05-25T02:29:22.954Z,62.80
2023-05-25T02:31:50.350Z,62.60
2023-05-25T02:34:17.932Z,62.80
2023-05-25T02:36:46.560Z,62.80
2023-05-25T02:39:13.872Z,63.00
2023-05-25T02:41:41.217Z,63.30
2023-05-25T02:44:10.185Z,63.40
2023-05-25T02:46:37.760Z,62.70
2023-05-25T02:49:06.009Z,63.70
2023-05-25T02:51:33.636Z,63.80
2023-05-25T02:54:01.328Z,64.00
2023-05-25T02:56:28.824Z,63.90
2023-05-25T02:58:57.869Z,64.60
2023-05-25T03:01:31.880Z,64.20
2023-05-25T03:03:59.505Z,64.00
2023-05-25T03:06:28.066Z,64.20
2023-05-25T03:08:58.845Z,64.30
2023-05-25T03:11:26.932Z,64.20
2023-05-25T03:13:56.709Z,64.40
2023-05-25T03:16:24.506Z,64.50
2023-05-25T03:18:53.301Z,64.90
2023-05-25T03:21:22.457Z,64.70
2023-05-25T03:23:50.161Z,65.00
2023-05-25T03:26:18.811Z,64.60
2023-05-25T03:28:50.813Z,63.80
2023-05-25T03:31:18.669Z,64.20
2023-05-25T03:33:46.280Z,64.60
2023-05-25T03:36:17.614Z,65.00
2023-05-25T03:38:45.439Z,64.20
2023-05-25T03:41:13.022Z,64.10
2023-05-25T03:43:40.501Z,64.90
2023-05-25T03:46:11.707Z,64.00
2023-05-25T03:48:39.499Z,65.00
2023-05-25T03:51:06.956Z,65.70
2023-05-25T03:53:35.892Z,65.90
2023-05-25T03:56:03.386Z,65.40
2023-05-25T03:58:30.973Z,65.60
2023-05-25T04:00:58.506Z,65.50
2023-05-25T04:03:27.940Z,66.30
2023-05-25T04:05:57.352Z,66.40
2023-05-25T04:08:25.399Z,66.60
2023-05-25T04:10:54.251Z,65.90
2023-05-25T04:13:21.711Z,66.40
2023-05-25T04:15:49.932Z,66.20
2023-05-25T04:18:21.147Z,66.70
2023-05-25T04:20:49.717Z,66.80
2023-05-25T04:23:21.265Z,66.70
2023-05-25T04:25:51.235Z,66.40
2023-05-25T04:28:20.120Z,66.20
2023-05-25T04:31:05.360Z,66.80
2023-05-25T04:33:39.663Z,66.60
2023-05-25T04:36:18.077Z,66.50
2023-05-25T04:38:47.953Z,66.80
2023-05-25T04:41:15.819Z,66.70
2023-05-25T04:44:05.960Z,67.00
2023-05-25T04:46:37.528Z,67.60
2023-05-25T04:49:05.822Z,67.90
2023-05-25T04:51:33.501Z,67.80
2023-05-25T04:54:01.106Z,68.20
2023-05-25T04:56:28.804Z,68.60
2023-05-25T04:58:59.217Z,68.10
2023-05-25T05:01:26.961Z,67.90
2023-05-25T05:03:59.996Z,67.60
2023-05-25T05:06:27.712Z,67.60
2023-05-25T05:08:56.344Z,67.70
2023-05-25T05:11:23.918Z,67.50
2023-05-25T05:13:52.532Z,67.90
2023-05-25T05:16:22.117Z,67.50
2023-05-25T05:18:49.744Z,67.20
2023-05-25T05:21:17.269Z,66.30
2023-05-25T05:23:45.633Z,66.80
2023-05-25T05:26:15.332Z,66.80
2023-05-25T05:28:42.993Z,66.20
2023-05-25T05:31:12.452Z,66.20
2023-05-25T05:33:41.519Z,66.90
2023-05-25T05:36:09.442Z,66.60
2023-05-25T05:38:39.898Z,66.70
2023-05-25T05:41:13.506Z,67.00
2023-05-25T05:43:43.288Z,66.80
2023-05-25T05:46:11.129Z,67.20
2023-05-25T05:48:42.380Z,67.30
2023-05-25T05:51:11.644Z,66.50
2023-05-25T05:53:39.210Z,66.70
2023-05-25T05:56:07.232Z,66.00
2023-05-25T05:58:35.075Z,65.90
2023-05-25T06:01:04.579Z,65.90
2023-05-25T06:03:32.653Z,65.70
2023-05-25T06:06:02.244Z,65.80
2023-05-25T06:08:30.134Z,65.60
2023-05-25T06:10:57.800Z,65.50
2023-05-25T06:13:25.514Z,65.20
2023-05-25T06:15:52.956Z,65.10
2023-05-25T06:18:24.560Z,64.80
2023-05-25T06:20:52.247Z,64.50
2023-05-25T06:23:22.492Z,64.30
2023-05-25T06:25:54.409Z,64.30
2023-05-25T06:28:22.446Z,64.50
2023-05-25T06:30:51.008Z,64.00
2023-05-25T06:33:18.709Z,63.50
2023-05-25T06:35:46.846Z,62.90
2023-05-25T06:38:15.080Z,62.50
2023-05-25T06:40:43.906Z,62.20
2023-05-25T06:43:11.656Z,61.70
2023-05-25T06:46:10.352Z,61.10
2023-05-25T06:48:39.500Z,60.70
2023-05-25T06:51:07.117Z,60.70
2023-05-25T06:53:34.686Z,60.30
2023-05-25T06:56:03.718Z,60.70
2023-05-25T06:58:31.683Z,60.40
2023-05-25T07:01:01.089Z,59.60
2023-05-25T07:03:28.830Z,59.00
2023-05-25T07:05:56.480Z,59.40
2023-05-25T07:08:23.938Z,58.80
2023-05-25T07:10:52.004Z,58.80
2023-05-25T07:13:20.870Z,58.20
2023-05-25T07:15:48.648Z,57.90
2023-05-25T07:18:16.613Z,57.70
2023-05-25T07:20:44.494Z,57.10
2023-05-25T07:23:12.746Z,56.90
2023-05-25T07:25:41.520Z,55.50
2023-05-25T07:28:09.380Z,56.40
2023-05-25T07:30:38.090Z,56.00
2023-05-25T07:33:05.600Z,55.40
2023-05-25T07:35:35.282Z,54.60
2023-05-25T07:38:04.706Z,54.80
2023-05-25T07:40:32.319Z,54.60
2023-05-25T07:42:59.826Z,54.50
2023-05-25T07:45:27.191Z,52.20
2023-05-25T07:47:56.077Z,53.00
2023-05-25T07:50:23.992Z,52.90
2023-05-25T07:52:51.470Z,52.00
2023-05-25T07:55:20.088Z,52.30
2023-05-25T07:57:47.454Z,51.00
2023-05-25T08:00:15.386Z,51.60
2023-05-25T08:02:42.792Z,50.60
2023-05-25T08:05:12.773Z,49.60
2023-05-25T08:07:42.075Z,50.70
2023-05-25T08:10:10.868Z,51.00
2023-05-25T08:12:48.778Z,50.00
2023-05-25T08:15:17.513Z,48.70
2023-05-25T08:17:45.131Z,49.00
2023-05-25T08:20:14.647Z,50.10
2023-05-25T08:22:42.760Z,49.00
2023-05-25T08:25:10.325Z,49.30
2023-05-25T08:27:37.939Z,48.70
2023-05-25T08:30:06.568Z,48.80
2023-05-25T08:32:34.000Z,48.90
2023-05-25T08:35:03.330Z,49.00
2023-05-25T08:37:33.446Z,49.20
2023-05-25T08:40:02.588Z,49.00
2023-05-25T08:42:30.464Z,48.90
2023-05-25T08:44:58.878Z,49.10
2023-05-25T08:47:33.757Z,48.80
2023-05-25T08:50:05.076Z,49.10
2023-05-25T08:52:36.377Z,49.30
2023-05-25T08:55:05.614Z,49.60
2023-05-25T08:57:43.695Z,49.70
2023-05-25T09:00:15.539Z,49.20
2023-05-25T09:02:50.940Z,49.20
2023-05-25T09:05:19.098Z,49.20
2023-05-25T09:07:48.539Z,49.90
2023-05-25T09:10:16.311Z,49.90
2023-05-25T09:12:44.021Z,49.20
2023-05-25T09:15:12.504Z,48.90
2023-05-25T09:17:41.309Z,48.00
2023-05-25T09:20:12.732Z,48.60
2023-05-25T09:22:40.890Z,48.80
2023-05-25T09:25:10.972Z,48.00
2023-05-25T09:27:38.872Z,48.20
2023-05-25T09:30:07.330Z,47.10
2023-05-25T09:32:36.035Z,48.00
2023-05-25T09:35:10.575Z,47.50
2023-05-25T09:37:38.424Z,47.00
2023-05-25T09:40:07.330Z,45.70
2023-05-25T09:42:36.565Z,46.20
2023-05-25T09:45:04.904Z,44.40
2023-05-25T09:47:32.392Z,45.60
2023-05-25T09:50:00.345Z,44.90
2023-05-25T09:52:27.820Z,46.00
2023-05-25T09:54:57.393Z,46.20
2023-05-25T09:57:24.734Z,45.90
2023-05-25T09:59:53.839Z,44.70
2023-05-25T10:02:21.605Z,45.00
2023-05-25T10:04:49.021Z,45.00
2023-05-25T10:07:17.351Z,45.30
2023-05-25T10:09:46.435Z,45.30
2023-05-25T10:12:19.045Z,45.40
2023-05-25T10:14:49.490Z,45.30
2023-05-25T10:17:23.724Z,45.00
2023-05-25T10:19:55.342Z,45.30
2023-05-25T10:22:30.108Z,44.30
2023-05-25T10:25:04.114Z,45.20
2023-05-25T10:27:38.008Z,44.50
2023-05-25T10:30:07.311Z,44.60
2023-05-25T10:32:37.868Z,44.00
2023-05-25T10:35:07.369Z,45.00
2023-05-25T10:37:35.607Z,45.10
2023-05-25T10:40:06.184Z,44.40
2023-05-25T10:42:36.899Z,44.20
2023-05-25T10:45:05.916Z,43.50
2023-05-25T10:47:35.719Z,42.90
2023-05-25T10:50:04.382Z,43.30
2023-05-25T10:52:32.583Z,43.70
2023-05-25T10:55:05.296Z,44.10
2023-05-25T10:57:32.904Z,43.40
2023-05-25T11:00:06.595Z,43.80
2023-05-25T11:02:54.977Z,43.50
2023-05-25T11:05:34.225Z,43.50
2023-05-25T11:08:02.863Z,43.10
2023-05-25T11:10:44.121Z,43.10
2023-05-25T11:13:36.488Z,42.70
2023-05-25T11:16:12.437Z,43.10
2023-05-25T11:18:41.990Z,42.90
2023-05-25T11:21:14.170Z,42.10
2023-05-25T11:23:54.153Z,42.60
2023-05-25T11:26:22.674Z,43.00
2023-05-25T11:28:52.371Z,43.00
2023-05-25T11:31:23.481Z,42.80
2023-05-25T11:33:57.376Z,42.00
2023-05-25T11:36:25.805Z,42.90
2023-05-25T11:39:04.834Z,42.90
2023-05-25T11:41:37.229Z,43.20
2023-05-25T11:44:08.430Z,42.60
2023-05-25T11:46:38.740Z,42.80
2023-05-25T11:49:07.646Z,42.50
2023-05-25T11:51:36.635Z,42.30
2023-05-25T11:54:04.421Z,42.30
2023-05-25T11:56:35.996Z,41.80
2023-05-25T11:59:07.910Z,42.90
2023-05-25T12:01:35.323Z,42.60
2023-05-25T12:04:09.531Z,42.40
2023-05-25T12:06:37.029Z,42.20
2023-05-25T12:09:06.518Z,41.00
2023-05-25T12:11:35.067Z,40.50
2023-05-25T12:14:05.769Z,41.80
2023-05-25T12:16:34.787Z,41.40
2023-05-25T12:19:03.108Z,41.70
2023-05-25T12:21:33.382Z,41.70
2023-05-25T12:24:01.672Z,41.50
2023-05-25T12:26:29.528Z,41.30
2023-05-25T12:29:00.977Z,41.70
2023-05-25T12:31:30.214Z,41.30
2023-05-25T12:34:08.939Z,41.50
2023-05-25T12:36:39.017Z,42.20
2023-05-25T12:39:07.399Z,42.50
2023-05-25T12:41:44.232Z,42.60
2023-05-25T12:44:19.529Z,42.40
2023-05-25T12:46:47.421Z,41.60
2023-05-25T12:49:26.017Z,42.10
2023-05-25T12:51:57.584Z,42.50
2023-05-25T12:54:41.035Z,42.80
2023-05-25T12:57:10.275Z,43.10
2023-05-25T12:59:39.508Z,42.60
2023-05-25T13:02:08.205Z,43.20
2023-05-25T13:04:36.788Z,42.90
2023-05-25T13:07:06.549Z,42.30
2023-05-25T13:09:34.415Z,43.10
2023-05-25T13:12:02.775Z,43.40
2023-05-25T13:14:30.988Z,43.50
2023-05-25T13:16:58.657Z,43.30
2023-05-25T13:19:26.892Z,43.70
2023-05-25T13:21:55.982Z,43.80
2023-05-25T13:24:24.831Z,43.70
2023-05-25T13:26:52.386Z,43.50
2023-05-25T13:29:19.946Z,43.10
2023-05-25T13:31:48.241Z,43.40
2023-05-25T13:34:15.880Z,42.60
2023-05-25T13:36:44.980Z,43.80
2023-05-25T13:39:13.674Z,43.00
2023-05-25T13:41:43.869Z,43.40
2023-05-25T13:44:13.660Z,44.00
2023-05-25T13:46:42.697Z,43.70
2023-05-25T13:49:10.743Z,43.90
2023-05-25T13:51:38.578Z,44.00
2023-05-25T13:54:06.572Z,43.00
2023-05-25T13:56:34.281Z,43.30
2023-05-25T13:59:03.156Z,43.50
2023-05-25T14:01:32.563Z,44.00
2023-05-25T14:04:00.510Z,43.20
2023-05-25T14:06:28.894Z,43.70
2023-05-25T14:08:56.447Z,43.10
2023-05-25T14:11:28.611Z,43.70
2023-05-25T14:13:56.315Z,43.10
2023-05-25T14:16:25.210Z,43.30
2023-05-25T14:18:52.990Z,43.00
2023-05-25T14:21:20.689Z,43.00
2023-05-25T14:23:48.290Z,42.50
2023-05-25T14:26:15.775Z,43.10
2023-05-25T14:28:47.503Z,43.40
2023-05-25T14:31:15.108Z,43.10
2023-05-25T14:33:44.371Z,43.50
2023-05-25T14:36:12.010Z,43.00
2023-05-25T14:38:39.611Z,43.30
2023-05-25T14:41:07.106Z,42.60
2023-05-25T14:43:34.977Z,43.00
2023-05-25T14:46:02.492Z,43.30
2023-05-25T14:48:30.067Z,43.40
2023-05-25T14:51:00.180Z,42.10
2023-05-25T14:53:27.695Z,42.90
2023-05-25T14:55:55.138Z,42.20
2023-05-25T14:58:22.626Z,42.30
2023-05-25T15:00:50.384Z,42.10
2023-05-25T15:03:19.002Z,42.80
2023-05-25T15:05:46.689Z,42.50
2023-05-25T15:08:15.760Z,41.90
2023-05-25T15:10:43.300Z,41.90
2023-05-25T15:13:12.538Z,42.30
2023-05-25T15:15:41.711Z,42.80
2023-05-25T15:18:09.402Z,42.60
2023-05-25T15:20:37.030Z,41.60
2023-05-25T15:23:04.486Z,41.40
2023-05-25T15:25:35.619Z,41.90
2023-05-25T15:28:03.612Z,42.50
2023-05-25T15:30:33.129Z,42.40
2023-05-25T15:33:00.794Z,42.50
2023-05-25T15:35:32.043Z,41.80
2023-05-25T15:37:59.750Z,42.20
2023-05-25T15:40:27.235Z,42.30
2023-05-25T15:42:56.261Z,41.90
2023-05-25T15:45:24.970Z,42.40
2023-05-25T15:47:52.353Z,42.70
2023-05-25T15:50:19.898Z,42.10
2023-05-25T15:52:47.560Z,42.60
2023-05-25T15:55:15.026Z,41.90
2023-05-25T15:57:42.362Z,42.00
2023-05-25T16:00:12.807Z,41.70
2023-05-25T16:02:40.564Z,42.30
2023-05-25T16:05:09.664Z,41.00
2023-05-25T16:07:37.062Z,41.40
2023-05-25T16:10:05.326Z,42.10
2023-05-25T16:12:32.803Z,42.10
2023-05-25T16:15:00.252Z,42.50
2023-05-25T16:17:29.828Z,41.80
2023-05-25T16:19:57.324Z,42.50
2023-05-25T16:22:24.770Z,42.40
2023-05-25T16:24:52.205Z,41.90
2023-05-25T16:27:19.601Z,41.60
2023-05-25T16:29:47.056Z,42.00
2023-05-25T16:32:14.518Z,41.90
2023-05-25T16:34:43.281Z,41.90
2023-05-25T16:37:10.656Z,41.40
2023-05-25T16:39:38.024Z,41.70
2023-05-25T16:42:06.465Z,42.10
2023-05-25T16:44:33.816Z,42.00
2023-05-25T16:47:01.297Z,42.60
2023-05-25T16:49:28.621Z,42.70
2023-05-25T16:51:57.364Z,42.40
2023-05-25T16:54:24.926Z,42.30
2023-05-25T16:56:52.285Z,42.60
2023-05-25T16:59:19.769Z,42.80
2023-05-25T17:01:47.266Z,42.60
2023-05-25T17:04:14.754Z,42.80
2023-05-25T17:06:42.166Z,43.10
2023-05-25T17:09:11.944Z,43.40
2023-05-25T17:11:39.328Z,43.10
2023-05-25T17:14:06.809Z,43.30
2023-05-25T17:16:34.248Z,43.90
2023-05-25T17:19:01.692Z,43.80
2023-05-25T17:21:29.118Z,44.10
2023-05-25T17:23:56.514Z,44.30
2023-05-25T17:26:25.812Z,44.40
2023-05-25T17:28:53.201Z,44.20
2023-05-25T17:31:20.649Z,44.50
2023-05-25T17:33:48.016Z,45.00
2023-05-25T17:36:15.384Z,44.90
2023-05-25T17:38:43.574Z,45.00
2023-05-25T17:41:10.939Z,45.10
2023-05-25T17:43:39.657Z,45.10
2023-05-25T17:46:07.096Z,45.40
2023-05-25T17:48:34.617Z,45.20
2023-05-25T17:51:02.014Z,45.20
2023-05-25T17:53:29.468Z,45.40
2023-05-25T17:55:56.822Z,45.70
2023-05-25T17:58:24.205Z,45.80
2023-05-25T18:00:52.942Z,45.80
2023-05-25T18:03:20.736Z,46.00
2023-05-25T18:05:48.268Z,46.00
2023-05-25T18:08:15.652Z,45.90
2023-05-25T18:10:42.983Z,45.90
2023-05-25T18:13:10.385Z,46.20
2023-05-25T18:15:37.799Z,46.30
2023-05-25T18:18:08.452Z,46.40
2023-05-25T18:20:35.870Z,46.50
2023-05-25T18:23:04.910Z,46.60
2023-05-25T18:25:32.345Z,46.80
2023-05-25T18:27:59.723Z,46.90
2023-05-25T18:30:27.071Z,46.80
2023-05-25T18:32:54.485Z,47.20
2023-05-25T18:35:23.174Z,47.10
2023-05-25T18:37:50.529Z,47.30
2023-05-25T18:40:17.850Z,47.30
2023-05-25T18:42:45.169Z,47.40
2023-05-25T18:45:12.603Z,47.70
2023-05-25T18:47:40.310Z,47.80
2023-05-25T18:50:08.136Z,48.00
2023-05-25T18:52:36.829Z,47.90
2023-05-25T18:55:04.792Z,48.10
2023-05-25T18:57:32.886Z,48.10
2023-05-25T19:00:00.373Z,48.20
2023-05-25T19:02:29.070Z,48.30
2023-05-25T19:04:56.855Z,48.40
2023-05-25T19:07:24.172Z,48.60
2023-05-25T19:09:52.840Z,48.60
2023-05-25T19:12:20.221Z,48.70
2023-05-25T19:14:47.576Z,48.70
2023-05-25T19:17:15.006Z,48.70
2023-05-25T19:19:42.327Z,48.70
2023-05-25T19:22:10.268Z,48.80
2023-05-25T19:24:41.011Z,48.70
2023-05-25T19:27:11.256Z,49.20
2023-05-25T19:29:38.623Z,49.10
2023-05-25T19:32:06.440Z,49.20
2023-05-25T19:34:33.821Z,49.40
2023-05-25T19:37:10.977Z,49.50
2023-05-25T19:39:39.127Z,49.60
2023-05-25T19:42:06.768Z,49.60
2023-05-25T19:44:35.510Z,49.80
2023-05-25T19:47:02.922Z,49.90
2023-05-25T19:49:30.756Z,50.30
2023-05-25T19:51:58.220Z,50.20
2023-05-25T19:54:25.540Z,50.30
2023-05-25T19:56:52.930Z,50.60
2023-05-25T19:59:21.660Z,50.50
2023-05-25T20:01:50.654Z,50.50
2023-05-25T20:04:18.047Z,50.70
2023-05-25T20:06:45.420Z,50.80
2023-05-25T20:09:14.106Z,50.90
2023-05-25T20:11:41.748Z,51.00
2023-05-25T20:14:09.049Z,51.20
2023-05-25T20:16:36.453Z,51.10
2023-05-25T20:19:07.423Z,51.00
2023-05-25T20:21:35.699Z,51.20
2023-05-25T20:24:03.488Z,51.20
2023-05-25T20:26:30.832Z,51.00
2023-05-25T20:28:58.146Z,50.10
2023-05-25T20:31:25.500Z,49.50
2023-05-25T20:33:52.846Z,49.30
2023-05-25T20:36:21.539Z,49.00
2023-05-25T20:38:48.862Z,48.60
2023-05-25T20:41:16.238Z,48.50
2023-05-25T20:43:43.742Z,48.60
2023-05-25T20:46:13.380Z,48.60
2023-05-25T20:48:40.926Z,48.50
2023-05-25T20:51:08.773Z,48.30
2023-05-25T20:53:37.613Z,48.20
2023-05-25T20:56:05.442Z,48.40
2023-05-25T20:58:32.999Z,48.20
2023-05-25T21:01:00.574Z,48.30
2023-05-25T21:03:28.629Z,48.30
2023-05-25T21:05:56.391Z,48.30
2023-05-25T21:08:24.363Z,48.30
2023-05-25T21:10:53.275Z,48.20
2023-05-25T21:13:21.022Z,48.30
2023-05-25T21:15:50.779Z,48.40
2023-05-25T21:18:18.276Z,48.50
2023-05-25T21:20:45.814Z,48.60
2023-05-25T21:23:13.415Z,48.60
2023-05-25T21:25:40.900Z,48.60
2023-05-25T21:28:10.463Z,48.60
2023-05-25T21:30:38.106Z,48.60
2023-05-25T21:33:05.886Z,48.70
2023-05-25T21:35:33.511Z,48.80
2023-05-25T21:38:00.995Z,48.90
2023-05-25T21:40:28.656Z,48.90
2023-05-25T21:42:56.308Z,48.90
2023-05-25T21:45:25.103Z,48.80
2023-05-25T21:47:52.761Z,49.00
2023-05-25T21:50:20.536Z,49.20
2023-05-25T21:52:47.970Z,49.20
2023-05-25T21:55:15.448Z,49.30
2023-05-25T21:57:42.932Z,49.30
2023-05-25T22:00:12.745Z,49.30
2023-05-25T22:02:41.622Z,49.50
2023-05-25T22:05:09.420Z,49.60
2023-05-25T22:07:36.824Z,49.80
2023-05-25T22:10:04.648Z,49.90
2023-05-25T22:12:32.037Z,50.40
2023-05-25T22:14:59.476Z,50.20
2023-05-25T22:17:26.898Z,50.30
2023-05-25T22:20:07.269Z,50.30
2023-05-25T22:22:37.386Z,51.00
2023-05-25T22:25:05.510Z,50.90
2023-05-25T22:27:33.055Z,51.30
2023-05-25T22:30:00.451Z,51.70
2023-05-25T22:32:28.282Z,51.80
2023-05-25T22:34:56.984Z,52.40
2023-05-25T22:37:24.505Z,52.90
2023-05-25T22:39:51.985Z,52.60
2023-05-25T22:42:19.582Z,52.60
2023-05-25T22:44:47.084Z,52.80
2023-05-25T22:47:14.855Z,52.80
2023-05-25T22:49:44.517Z,52.90
2023-05-25T22:52:13.634Z,52.70
2023-05-25T22:54:41.235Z,52.70
2023-05-25T22:57:10.006Z,52.90
2023-05-25T22:59:37.720Z,52.70
2023-05-25T23:02:05.789Z,52.80
2023-05-25T23:04:35.068Z,52.70
2023-05-25T23:07:02.596Z,52.60
2023-05-25T23:09:31.375Z,52.90
2023-05-25T23:11:58.811Z,52.90
2023-05-25T23:14:26.319Z,53.10
2023-05-25T23:16:53.871Z,53.10
2023-05-25T23:19:24.431Z,53.40
2023-05-25T23:21:51.880Z,53.30
2023-05-25T23:24:19.373Z,53.60
2023-05-25T23:26:48.312Z,53.60
2023-05-25T23:29:15.911Z,53.50
2023-05-25T23:31:43.533Z,54.00
2023-05-25T23:34:11.313Z,53.90
2023-05-25T23:36:38.768Z,54.20
2023-05-25T23:39:06.449Z,54.10
2023-05-25T23:41:34.037Z,54.10
2023-05-25T23:44:02.927Z,54.30
2023-05-25T23:46:31.782Z,54.30
2023-05-25T23:48:59.475Z,54.30
2023-05-25T23:51:26.919Z,54.20
2023-05-25T23:53:54.340Z,54.80
2023-05-25T23:56:22.008Z,54.70
2023-05-25T23:58:49.484Z,54.40
